Time;durP1;ratioP1;P1;durP2;ratioP2;P2;SDS_P1;SDS_P2;PMS_P1;PMS_P2;Temp;Humidity;BMP_temperature;BMP_pressure;BME280_temperature;BME280_humidity;BME280_pressure;Samples;Min_cycle;Max_cycle;Signal;HPM_P1;HPM_P2
2024/01/04 00:00:06;;;;;;;1.47;0.73;;;8.50;81.20;;;9.91;60.15;96077.50;5070892;28;20040;-55
2024/01/04 00:02:33;;;;;;;0.93;0.40;;;8.40;81.10;;;9.93;60.25;96066.69;5069393;28;20263;-55
2024/01/04 00:05:02;;;;;;;1.87;0.60;;;8.40;81.80;;;9.95;60.06;96081.41;5071062;28;20036;-55
2024/01/04 00:07:30;;;;;;;1.67;0.50;;;8.50;82.00;;;9.93;60.02;96074.66;5070767;28;20052;-55
2024/01/04 00:09:57;;;;;;;0.60;0.50;;;8.40;82.30;;;9.80;60.38;96081.53;5069987;28;20037;-56
2024/01/04 00:12:25;;;;;;;1.30;0.53;;;8.30;83.50;;;9.72;61.13;96081.69;5070733;28;20052;-55
2024/01/04 00:14:52;;;;;;;1.20;0.40;;;8.30;85.90;;;9.73;61.26;96080.69;5070983;28;20043;-56
2024/01/04 00:17:21;;;;;;;1.00;0.63;;;8.20;86.50;;;9.64;61.90;96090.63;5070715;28;20044;-56
2024/01/04 00:19:49;;;;;;;1.80;0.93;;;8.10;86.50;;;9.68;61.63;96096.38;5070745;28;20043;-53
2024/01/04 00:22:16;;;;;;;2.30;1.00;;;8.10;86.60;;;9.74;61.40;96097.44;5070775;28;20037;-56
2024/01/04 00:24:44;;;;;;;0.73;0.50;;;8.20;87.00;;;9.73;61.90;96093.97;5070912;28;20048;-56
2024/01/04 00:27:11;;;;;;;1.60;0.63;;;8.20;86.20;;;9.72;61.60;96091.50;5070853;28;20056;-56
2024/01/04 00:29:39;;;;;;;2.30;0.80;;;8.20;86.20;;;9.73;61.33;96074.50;5061079;28;20518;-58
2024/01/04 00:32:07;;;;;;;1.90;0.60;;;8.10;86.60;;;9.75;61.85;96080.47;5070437;28;20049;-59
2024/01/04 00:34:35;;;;;;;1.80;0.63;;;8.10;88.00;;;9.76;62.15;96082.13;5068541;28;20044;-58
2024/01/04 00:37:06;;;;;;;0.50;0.50;;;8.10;88.80;;;9.75;61.92;96094.59;5068809;28;20041;-57
2024/01/04 00:39:33;;;;;;;1.40;0.70;;;8.00;88.30;;;9.70;62.18;96094.34;5068471;28;20516;-58
2024/01/04 00:42:02;;;;;;;1.00;0.60;;;8.00;88.40;;;9.77;61.88;96091.72;5068945;28;20051;-58
2024/01/04 00:44:30;;;;;;;1.77;0.57;;;8.00;86.90;;;9.77;61.67;96084.59;5069923;28;20511;-57
2024/01/04 00:46:58;;;;;;;2.13;0.70;;;8.00;87.80;;;9.77;62.03;96089.91;5069217;28;20067;-57
2024/01/04 00:49:26;;;;;;;0.97;0.60;;;8.10;88.30;;;9.76;61.68;96101.53;5068453;28;20056;-58
2024/01/04 00:51:53;;;;;;;0.53;0.47;;;8.00;88.10;;;9.77;61.85;96110.31;5070644;28;20052;-58
2024/01/04 00:54:21;;;;;;;0.77;0.50;;;8.10;87.60;;;9.71;61.93;96103.13;5084939;28;20044;-57
2024/01/04 00:56:48;;;;;;;0.80;0.53;;;8.00;86.90;;;9.75;61.95;96083.97;5070561;28;20048;-57
2024/01/04 00:59:16;;;;;;;0.93;0.80;;;8.00;86.90;;;9.78;61.75;96118.09;5069823;28;20403;-58
2024/01/04 01:01:44;;;;;;;3.03;0.77;;;8.10;86.30;;;9.80;61.35;96115.25;5070309;28;20500;-57
2024/01/04 01:04:11;;;;;;;1.10;0.80;;;8.10;86.20;;;9.79;61.66;96130.38;5068350;28;20044;-57
2024/01/04 01:06:39;;;;;;;3.73;0.70;;;8.10;85.60;;;9.75;61.51;96141.59;5068763;28;20044;-56
2024/01/04 01:09:06;;;;;;;0.60;0.60;;;8.10;85.10;;;9.67;61.79;96134.56;5060562;28;20052;-56
2024/01/04 01:11:34;;;;;;;1.50;0.80;;;8.10;86.00;;;9.64;61.91;96127.81;5068240;28;20051;-56
2024/01/04 01:14:02;;;;;;;4.50;0.90;;;8.00;86.80;;;9.63;61.82;96131.50;5070001;28;20041;-57
2024/01/04 01:16:31;;;;;;;2.43;0.63;;;8.00;86.10;;;9.58;61.93;96135.75;5070084;28;20044;-56
2024/01/04 01:18:58;;;;;;;1.33;0.43;;;8.00;85.20;;;9.51;61.57;96148.13;5070455;28;20037;-57
2024/01/04 01:21:26;;;;;;;0.60;0.40;;;8.00;84.80;;;9.50;61.45;96131.38;5071966;28;20040;-55
2024/01/04 01:23:54;;;;;;;0.50;0.43;;;8.00;84.50;;;9.45;61.67;96129.28;5071912;28;20036;-56
2024/01/04 01:26:22;;;;;;;0.93;0.50;;;8.00;84.80;;;9.43;61.88;96136.63;5071773;28;20053;-56
2024/01/04 01:28:49;;;;;;;1.63;0.40;;;7.90;85.00;;;9.42;61.91;96127.03;5072012;28;20040;-56
2024/01/04 01:31:17;;;;;;;1.20;0.50;;;7.90;85.40;;;9.46;61.84;96132.78;5071623;28;20048;-56
2024/01/04 01:33:45;;;;;;;0.77;0.50;;;7.90;84.80;;;9.42;61.66;96126.19;5064033;28;20041;-56
2024/01/04 01:36:13;;;;;;;1.37;0.53;;;7.80;84.80;;;9.48;61.33;96132.56;5073294;28;20048;-56
2024/01/04 01:38:41;;;;;;;1.20;0.90;;;7.90;85.20;;;9.50;61.83;96134.03;5071703;28;20044;-56
2024/01/04 01:41:08;;;;;;;2.53;0.50;;;7.90;84.90;;;9.54;61.36;96150.41;5071349;28;20040;-56
2024/01/04 01:43:36;;;;;;;0.57;0.50;;;8.00;85.30;;;9.56;61.51;96151.06;5071325;28;20059;-56
2024/01/04 01:46:04;;;;;;;1.63;0.50;;;7.90;85.10;;;9.58;61.50;96159.66;5071774;28;20044;-56
2024/01/04 01:48:32;;;;;;;1.50;0.70;;;7.90;85.00;;;9.55;61.23;96152.06;5071676;28;20488;-56
2024/01/04 01:51:00;;;;;;;1.40;0.80;;;7.90;84.80;;;9.50;61.73;96167.72;5071504;28;20045;-54
2024/01/04 01:53:28;;;;;;;0.43;0.37;;;7.90;85.30;;;9.50;61.72;96187.19;5068650;28;20045;-57
2024/01/04 01:55:55;;;;;;;0.93;0.60;;;8.00;85.60;;;9.41;61.76;96185.66;5072371;28;20048;-57
2024/01/04 01:58:23;;;;;;;0.97;0.63;;;7.90;85.60;;;9.39;62.34;96175.22;5071136;28;20044;-53
2024/01/04 02:00:51;;;;;;;0.67;0.50;;;7.90;86.60;;;9.41;62.51;96186.47;5071211;28;20051;-55
2024/01/04 02:03:19;;;;;;;0.93;0.50;;;7.90;86.70;;;9.40;62.34;96189.31;5073012;28;20040;-55
2024/01/04 02:05:47;;;;;;;1.67;0.40;;;7.90;86.10;;;9.35;62.32;96179.25;5071052;28;20519;-56
2024/01/04 02:08:15;;;;;;;0.83;0.33;;;7.90;84.90;;;9.41;61.79;96189.13;5071281;28;20393;-55
2024/01/04 02:10:43;;;;;;;0.67;0.60;;;7.90;84.60;;;9.45;61.69;96168.31;5070894;28;20048;-56
2024/01/04 02:13:10;;;;;;;1.67;0.63;;;7.90;84.30;;;9.45;62.09;96139.91;5070960;28;20056;-56
2024/01/04 02:15:38;;;;;;;0.37;0.37;;;7.90;84.10;;;9.43;61.76;96162.38;5072542;28;20059;-56
2024/01/04 02:18:06;;;;;;;0.70;0.70;;;8.00;83.40;;;9.33;61.74;96191.09;5072691;28;20103;-55
2024/01/04 02:20:34;;;;;;;1.00;0.50;;;8.00;82.60;;;9.30;61.51;96165.72;5070626;28;20392;-55
2024/01/04 02:23:01;;;;;;;1.20;0.40;;;8.10;81.80;;;9.34;61.56;96172.28;5070457;28;20048;-56
2024/01/04 02:25:31;;;;;;;2.00;0.80;;;8.10;81.30;;;9.31;61.43;96179.84;5070608;28;20056;-55
2024/01/04 02:27:59;;;;;;;1.80;0.67;;;8.20;80.50;;;9.12;61.27;96176.78;5070911;28;20048;-55
2024/01/04 02:30:27;;;;;;;1.97;0.40;;;8.10;80.00;;;9.17;61.38;96186.81;5070346;28;20059;-55
2024/01/04 02:32:54;;;;;;;0.50;0.50;;;8.20;80.00;;;9.21;61.41;96183.63;5071829;28;20052;-55
2024/01/04 02:35:22;;;;;;;0.43;0.40;;;8.20;81.40;;;9.24;61.42;96198.34;5072299;28;20051;-55
2024/01/04 02:37:50;;;;;;;2.30;1.10;;;8.20;80.20;;;9.34;61.15;96204.16;5072318;28;20040;-56
2024/01/04 02:40:19;;;;;;;2.03;0.43;;;8.20;80.40;;;9.41;60.86;96197.09;5072074;28;20032;-55
2024/01/04 02:42:46;;;;;;;0.80;0.50;;;8.20;80.80;;;9.26;61.35;96214.91;5071969;28;20045;-55
2024/01/04 02:45:15;;;;;;;1.80;0.80;;;8.10;81.00;;;9.38;60.86;96209.91;5072208;28;20037;-56
2024/01/04 02:47:43;;;;;;;0.77;0.60;;;8.10;80.80;;;9.44;61.16;96211.81;5070081;28;20052;-56
2024/01/04 02:50:11;;;;;;;1.00;0.60;;;8.20;80.70;;;9.48;60.78;96207.78;5071754;28;20043;-56
2024/01/04 02:52:39;;;;;;;2.83;0.50;;;8.20;80.40;;;9.48;60.96;96199.81;5071997;28;20052;-56
2024/01/04 02:55:07;;;;;;;0.60;0.60;;;8.20;80.00;;;9.49;60.95;96208.59;5069769;28;20044;-54
2024/01/04 02:57:35;;;;;;;1.70;0.70;;;8.20;80.30;;;9.48;60.78;96205.13;5071546;28;20044;-54
2024/01/04 03:00:03;;;;;;;3.50;0.70;;;8.30;79.80;;;9.37;60.90;96206.44;5069924;28;20052;-56
2024/01/04 03:02:31;;;;;;;0.93;0.70;;;8.20;79.70;;;9.36;61.02;96236.66;5070415;28;20475;-55
2024/01/04 03:04:59;;;;;;;0.83;0.60;;;8.20;80.20;;;9.38;61.13;96217.88;5071795;28;20412;-56
2024/01/04 03:07:27;;;;;;;4.10;1.00;;;8.20;80.10;;;9.36;60.75;96209.28;5071874;28;20045;-56
2024/01/04 03:09:55;;;;;;;0.87;0.73;;;8.30;80.00;;;9.42;60.79;96217.34;5070275;28;20089;-56
2024/01/04 03:12:22;;;;;;;2.23;0.70;;;8.30;79.80;;;9.31;61.09;96220.50;5071690;28;20052;-56
2024/01/04 03:14:50;;;;;;;2.80;0.70;;;8.30;79.60;;;9.36;61.06;96225.22;5071703;28;20051;-56
2024/01/04 03:17:18;;;;;;;0.93;0.60;;;8.30;80.60;;;9.50;61.05;96235.00;5070817;28;20033;-56
2024/01/04 03:19:45;;;;;;;2.40;0.70;;;8.40;79.70;;;9.39;61.31;96214.22;5071489;28;20432;-56
2024/01/04 03:22:13;;;;;;;4.60;1.37;;;8.40;79.80;;;9.32;61.64;96208.84;5069804;28;20416;-57
2024/01/04 03:24:40;;;;;;;3.50;0.97;;;8.30;80.40;;;9.37;61.27;96233.00;5071817;28;20068;-57
2024/01/04 03:27:10;;;;;;;4.30;0.90;;;8.30;80.30;;;9.41;61.56;96204.25;5071819;28;20064;-56
2024/01/04 03:29:38;;;;;;;1.50;0.70;;;8.30;80.60;;;9.28;61.20;96191.63;5069956;28;20048;-56
2024/01/04 03:32:06;;;;;;;1.50;0.53;;;8.30;80.10;;;9.29;61.54;96189.81;5072122;28;20376;-57
2024/01/04 03:34:34;;;;;;;1.80;0.80;;;8.30;80.10;;;9.41;61.14;96207.72;5071259;28;20037;-56
2024/01/04 03:37:02;;;;;;;1.90;1.23;;;8.30;79.20;;;9.54;60.63;96219.47;5071188;28;20044;-56
2024/01/04 03:39:29;;;;;;;1.30;0.77;;;8.40;79.20;;;9.46;60.79;96217.78;5071078;28;20052;-56
2024/01/04 03:41:57;;;;;;;3.60;1.00;;;8.40;78.40;;;9.57;60.21;96203.16;5071224;28;20047;-56
2024/01/04 03:44:25;;;;;;;2.67;0.80;;;8.50;78.30;;;9.61;60.33;96228.34;5070081;28;20048;-56
2024/01/04 03:46:52;;;;;;;2.67;0.83;;;8.50;78.50;;;9.52;60.10;96224.16;5071126;28;20044;-56
2024/01/04 03:49:20;;;;;;;2.77;0.93;;;8.50;77.60;;;9.50;60.51;96220.88;5070692;28;20491;-53
2024/01/04 03:51:48;;;;;;;3.27;1.10;;;8.40;78.00;;;9.63;60.18;96218.34;5071166;28;20155;-56
2024/01/04 03:54:15;;;;;;;1.93;1.17;;;8.50;78.40;;;9.57;59.65;96217.25;5069035;28;20045;-58
2024/01/04 03:56:43;;;;;;;1.80;0.90;;;8.60;77.00;;;9.58;59.91;96242.03;5070942;28;20044;-57
2024/01/04 03:59:11;;;;;;;1.83;0.60;;;8.50;77.00;;;9.69;59.94;96233.53;5070997;28;20028;-57
2024/01/04 04:01:44;;;;;;;2.20;1.07;;;8.60;77.30;;;9.41;60.17;96236.94;5070875;28;20100;-57
2024/01/04 04:04:12;;;;;;;2.67;0.95;;;8.50;77.50;;;9.39;60.65;96228.31;5070883;28;20037;-56
2024/01/04 04:06:40;;;;;;;2.13;1.20;;;8.40;78.70;;;9.53;60.29;96228.47;5070955;28;20045;-56
2024/01/04 04:09:08;;;;;;;2.40;1.20;;;8.50;77.60;;;9.49;60.53;96240.50;5070556;28;20515;-57
2024/01/04 04:11:36;;;;;;;1.70;1.20;;;8.50;77.70;;;9.51;60.47;96267.69;5070574;28;20496;-56
2024/01/04 04:14:04;;;;;;;5.93;1.50;;;8.50;77.70;;;9.49;60.21;96243.16;5070624;28;20057;-57
2024/01/04 04:16:31;;;;;;;3.77;0.97;;;8.50;77.40;;;9.27;60.42;96243.94;5070694;28;20056;-57
2024/01/04 04:18:59;;;;;;;2.83;0.87;;;8.40;77.10;;;9.36;60.43;96251.78;5062591;28;20047;-56
2024/01/04 04:21:27;;;;;;;1.60;0.67;;;8.40;77.60;;;9.55;59.99;96247.69;5070254;28;20492;-57
2024/01/04 04:23:55;;;;;;;4.53;1.00;;;8.50;77.10;;;9.49;59.75;96248.47;5070639;28;20044;-57
2024/01/04 04:26:23;;;;;;;4.63;0.80;;;8.50;76.70;;;9.51;59.53;96267.69;5070726;28;20041;-57
2024/01/04 04:28:51;;;;;;;2.47;1.10;;;8.60;75.60;;;9.38;59.67;96266.53;5070462;28;20496;-57
2024/01/04 04:31:19;;;;;;;3.60;1.63;;;8.50;76.00;;;9.46;59.89;96247.81;5070286;28;20064;-55
2024/01/04 04:33:48;;;;;;;1.07;0.73;;;8.50;77.00;;;9.29;61.08;96261.53;5070539;28;20044;-56
2024/01/04 04:36:16;;;;;;;2.20;0.97;;;8.40;78.90;;;9.29;61.18;96291.56;5070715;28;20044;-56
2024/01/04 04:38:44;;;;;;;2.27;0.53;;;8.40;80.10;;;9.23;60.92;96279.84;5070349;28;20056;-57
2024/01/04 04:41:12;;;;;;;1.70;0.67;;;8.40;78.30;;;9.11;61.32;96272.53;5070307;28;20063;-55
2024/01/04 04:43:39;;;;;;;1.83;0.80;;;8.30;77.70;;;9.30;60.97;96287.88;5070332;28;20041;-57
2024/01/04 04:46:09;;;;;;;3.93;0.90;;;8.40;77.90;;;9.30;61.51;96290.53;5070484;28;20495;-57
2024/01/04 04:48:38;;;;;;;4.23;1.23;;;8.40;79.80;;;9.24;62.28;96300.06;5069385;28;20416;-57
2024/01/04 04:51:06;;;;;;;10.20;2.60;;;8.30;82.30;;;9.11;62.88;96281.34;5070107;28;20044;-58
2024/01/04 04:53:34;;;;;;;3.43;0.90;;;8.20;84.40;;;9.13;63.38;96310.34;5067079;28;20052;-56
2024/01/04 04:56:02;;;;;;;2.90;0.87;;;8.10;84.30;;;8.97;63.49;96303.41;5073182;28;20272;-55
2024/01/04 04:58:29;;;;;;;1.80;0.87;;;8.10;83.90;;;8.95;63.63;96285.00;5074263;28;20051;-56
2024/01/04 05:00:57;;;;;;;3.43;1.10;;;8.00;85.20;;;8.94;64.05;96299.28;5073805;28;20040;-56
2024/01/04 05:03:25;;;;;;;2.10;1.17;;;8.00;85.50;;;8.96;64.01;96323.81;5073982;28;20075;-55
2024/01/04 05:05:53;;;;;;;0.97;0.70;;;8.00;83.70;;;8.98;63.23;96313.84;5074092;28;20063;-55
2024/01/04 05:08:22;;;;;;;1.70;0.87;;;8.00;83.30;;;9.01;63.54;96324.06;5073102;28;20071;-56
2024/01/04 05:10:50;;;;;;;5.37;1.17;;;8.10;83.50;;;8.83;63.64;96305.88;5073872;28;20071;-56
2024/01/04 05:13:17;;;;;;;2.17;1.10;;;8.00;82.80;;;8.94;63.50;96314.41;5073983;28;20051;-56
2024/01/04 05:15:45;;;;;;;2.37;0.73;;;8.00;83.20;;;9.01;63.70;96332.03;5073685;28;20036;-56
2024/01/04 05:18:12;;;;;;;3.40;1.20;;;8.00;83.80;;;9.12;62.94;96369.78;5073907;28;20029;-56
2024/01/04 05:20:40;;;;;;;1.60;0.60;;;8.10;82.40;;;9.09;62.95;96332.94;5073121;28;20052;-56
2024/01/04 05:23:08;;;;;;;0.70;0.50;;;8.10;83.30;;;8.95;63.34;96337.25;5073604;28;20392;-55
2024/01/04 05:25:35;;;;;;;1.67;0.60;;;8.00;83.00;;;9.06;63.08;96339.47;5073504;28;20123;-54
2024/01/04 05:28:07;;;;;;;3.70;0.97;;;8.00;84.10;;;9.14;63.12;96347.34;5064709;28;20063;-56
2024/01/04 05:30:35;;;;;;;1.63;0.60;;;8.00;83.60;;;9.15;63.00;96353.47;5073171;28;20263;-54
2024/01/04 05:33:03;;;;;;;3.27;0.80;;;8.00;83.60;;;9.26;62.83;96347.69;5073854;28;20040;-55
2024/01/04 05:35:31;;;;;;;2.73;1.07;;;8.10;83.20;;;9.12;63.27;96351.19;5073461;28;20412;-56
2024/01/04 05:37:59;;;;;;;2.00;1.00;;;8.00;83.80;;;9.10;62.74;96353.19;5073566;28;20040;-55
2024/01/04 05:40:26;;;;;;;2.47;0.80;;;8.00;82.90;;;9.21;62.88;96355.41;5071236;28;20041;-56
2024/01/04 05:42:57;;;;;;;3.40;1.00;;;8.10;83.20;;;9.29;62.32;96357.13;5073092;28;20057;-56
2024/01/04 05:45:25;;;;;;;2.93;1.00;;;8.10;83.90;;;9.34;62.05;96371.47;5073477;28;20048;-55
2024/01/04 05:47:52;;;;;;;2.17;1.40;;;8.20;82.10;;;9.31;62.08;96379.84;5073368;28;20036;-56
2024/01/04 05:50:20;;;;;;;0.93;0.50;;;8.20;82.20;;;9.33;61.89;96392.94;5072861;28;20041;-56
2024/01/04 05:52:48;;;;;;;0.90;0.70;;;8.20;82.20;;;9.31;61.84;96400.28;5072731;28;20067;-55
2024/01/04 05:55:15;;;;;;;1.60;0.70;;;8.20;81.70;;;9.36;62.08;96389.91;5073222;28;20146;-56
2024/01/04 05:57:43;;;;;;;1.27;0.83;;;8.20;81.90;;;9.40;61.92;96404.47;5073049;28;20392;-54
2024/01/04 06:00:11;;;;;;;3.87;1.10;;;8.20;81.60;;;9.41;61.85;96416.75;5072575;28;20044;-56
2024/01/04 06:02:44;;;;;;;4.47;1.20;;;8.30;81.00;;;9.24;61.99;96403.63;5072739;28;20089;-56
2024/01/04 06:05:12;;;;;;;2.43;0.90;;;8.10;80.90;;;9.24;62.00;96406.28;5072926;28;20480;-56
2024/01/04 06:07:40;;;;;;;5.93;1.50;;;8.10;81.30;;;9.16;61.94;96408.22;5072074;28;20049;-56
2024/01/04 06:10:07;;;;;;;9.63;1.30;;;8.10;81.40;;;9.27;61.95;96410.44;5072374;28;20044;-54
2024/01/04 06:12:35;;;;;;;4.97;1.13;;;8.10;81.10;;;9.26;61.72;96414.91;5072655;28;20432;-56
2024/01/04 06:15:03;;;;;;;2.03;0.70;;;8.20;81.00;;;9.29;61.43;96418.22;5072621;28;20055;-56
2024/01/04 06:17:31;;;;;;;1.97;1.03;;;8.10;80.00;;;9.27;61.22;96440.47;5072525;28;20045;-56
2024/01/04 06:19:59;;;;;;;4.03;1.17;;;8.10;80.20;;;9.31;61.36;96435.63;5072287;28;20507;-56
2024/01/04 06:22:26;;;;;;;1.97;1.03;;;8.20;80.00;;;9.23;61.24;96448.97;5072466;28;20041;-55
2024/01/04 06:24:54;;;;;;;2.57;1.00;;;8.10;80.10;;;9.22;61.42;96444.66;5072508;28;20044;-55
2024/01/04 06:27:21;;;;;;;3.07;0.80;;;8.10;80.40;;;9.24;61.71;96448.78;5073083;28;20041;-56
2024/01/04 06:29:49;;;;;;;4.20;0.90;;;8.10;81.00;;;9.10;62.62;96444.28;5072109;28;20067;-55
2024/01/04 06:32:17;;;;;;;1.20;0.70;;;8.00;83.30;;;9.28;62.53;96441.28;5072318;28;20043;-56
2024/01/04 06:34:44;;;;;;;3.80;0.90;;;8.10;84.30;;;9.27;62.23;96469.66;5072003;28;20044;-54
2024/01/04 06:37:13;;;;;;;0.83;0.57;;;8.10;82.70;;;9.25;62.09;96453.09;5064296;28;20036;-53
2024/01/04 06:39:40;;;;;;;2.40;0.80;;;8.10;81.60;;;9.38;61.71;96467.56;5071976;28;20048;-54
2024/01/04 06:42:08;;;;;;;2.57;1.53;;;8.10;81.70;;;9.15;62.11;96457.84;5072771;28;20041;-54
2024/01/04 06:44:36;;;;;;;1.50;0.70;;;8.00;81.60;;;9.17;62.10;96490.38;5072634;28;20051;-51
2024/01/04 06:47:14;;;;;;;2.07;0.70;;;8.00;81.70;;;9.19;61.42;96504.28;5062898;28;20048;-55
2024/01/04 06:49:42;;;;;;;1.30;0.70;;;8.10;81.10;;;9.25;61.67;96473.53;5062596;28;20044;-55
2024/01/04 06:52:11;;;;;;;3.03;0.73;;;8.10;80.70;;;9.26;61.81;96485.78;5070952;28;20496;-54
2024/01/04 06:54:38;;;;;;;1.93;1.00;;;8.10;81.20;;;9.28;61.28;96475.81;5071677;28;20052;-55
2024/01/04 06:57:06;;;;;;;1.23;0.90;;;8.10;80.50;;;9.25;61.49;96489.47;5071306;28;20071;-53
2024/01/04 06:59:35;;;;;;;5.20;1.77;;;8.10;80.00;;;9.12;61.50;96483.94;5070993;28;20262;-55
2024/01/04 07:02:04;;;;;;;3.33;1.00;;;8.10;79.70;;;9.22;61.41;96498.59;5072016;28;20048;-54
2024/01/04 07:04:32;;;;;;;5.37;1.47;;;8.10;80.50;;;9.22;61.22;96495.13;5071924;28;20045;-55
2024/01/04 07:07:00;;;;;;;5.90;1.03;;;8.10;80.40;;;9.26;61.13;96497.22;5071501;28;20041;-55
2024/01/04 07:09:28;;;;;;;1.57;0.97;;;8.10;80.30;;;9.13;61.46;96510.31;5071633;28;20049;-55
2024/01/04 07:11:55;;;;;;;9.83;1.30;;;8.00;81.10;;;9.21;61.45;96509.41;5070433;28;20115;-56
2024/01/04 07:14:23;;;;;;;3.83;2.03;;;8.00;81.10;;;9.11;61.66;96506.16;5071556;28;20040;-55
2024/01/04 07:16:51;;;;;;;4.23;2.10;;;8.00;81.60;;;9.20;61.45;96505.91;5071695;28;20059;-55
2024/01/04 07:19:18;;;;;;;3.43;1.20;;;8.00;81.60;;;9.18;61.69;96507.94;5071203;28;20519;-56
2024/01/04 07:21:47;;;;;;;2.60;1.20;;;7.90;81.80;;;9.19;61.47;96532.66;5069702;28;20056;-55
2024/01/04 07:24:16;;;;;;;2.13;1.10;;;7.90;82.10;;;9.16;61.72;96523.22;5070832;28;20071;-55
2024/01/04 07:26:44;;;;;;;1.50;0.83;;;7.90;81.60;;;9.08;61.51;96539.22;5071269;28;20048;-56
2024/01/04 07:29:11;;;;;;;3.67;1.60;;;7.80;81.80;;;9.11;61.82;96528.25;5070981;28;20519;-56
2024/01/04 07:31:39;;;;;;;3.27;1.67;;;7.80;82.20;;;9.20;61.51;96527.16;5071296;28;20044;-57
2024/01/04 07:34:06;;;;;;;4.63;1.27;;;7.90;81.30;;;9.17;61.71;96546.13;5069172;28;20056;-57
2024/01/04 07:36:35;;;;;;;2.67;1.00;;;7.90;80.80;;;9.09;60.90;96535.56;5069711;28;20053;-56
2024/01/04 07:39:03;;;;;;;3.03;1.70;;;7.90;79.90;;;9.13;61.18;96550.16;5071270;28;20055;-57
2024/01/04 07:41:31;;;;;;;3.33;1.50;;;8.00;79.70;;;9.03;61.19;96539.78;5070852;28;20041;-56
2024/01/04 07:43:58;;;;;;;2.53;1.23;;;7.90;79.50;;;9.15;60.59;96556.09;5070822;28;20419;-55
2024/01/04 07:46:27;;;;;;;4.33;1.20;;;7.90;78.70;;;9.21;60.21;96542.09;5071243;28;20494;-54
2024/01/04 07:48:55;;;;;;;3.70;1.23;;;8.00;77.80;;;9.31;60.03;96554.31;5070996;28;20408;-51
2024/01/04 07:51:26;;;;;;;6.60;1.20;;;8.10;78.00;;;9.35;59.49;96551.09;5068888;28;20093;-54
2024/01/04 07:53:54;;;;;;;5.07;1.77;;;8.10;77.40;;;9.25;59.29;96550.53;5066863;28;20052;-56
2024/01/04 07:56:22;;;;;;;1.97;1.00;;;8.10;76.20;;;9.32;59.32;96556.75;5069033;28;20048;-55
2024/01/04 07:58:49;;;;;;;3.20;1.63;;;8.10;75.90;;;9.18;59.11;96542.44;5071129;28;20512;-56
2024/01/04 08:01:17;;;;;;;3.00;1.33;;;8.00;75.20;;;9.29;58.55;96562.47;5070556;28;20059;-54
2024/01/04 08:03:45;;;;;;;7.47;1.53;;;8.10;75.30;;;9.26;58.42;96573.41;5070553;28;20519;-56
2024/01/04 08:06:13;;;;;;;3.97;1.80;;;8.10;74.00;;;9.25;58.44;96572.59;5070751;28;20048;-53
2024/01/04 08:08:41;;;;;;;5.63;1.47;;;8.10;74.00;;;9.32;58.11;96574.53;5071003;28;20055;-53
2024/01/04 08:11:09;;;;;;;5.63;1.10;;;8.10;73.50;;;9.19;57.77;96565.34;5070594;28;20420;-56
2024/01/04 08:13:37;;;;;;;5.97;2.00;;;8.00;72.80;;;9.16;57.04;96578.16;5070531;28;20052;-51
2024/01/04 08:16:06;;;;;;;4.70;1.40;;;8.00;71.60;;;9.22;57.52;96574.78;5070710;28;20052;-57
2024/01/04 08:18:35;;;;;;;6.27;1.73;;;8.10;72.70;;;9.32;57.29;96570.03;5070922;28;20196;-54
2024/01/04 08:21:04;;;;;;;3.77;1.53;;;8.10;72.70;;;9.33;56.88;96579.69;5070317;28;20044;-56
2024/01/04 08:23:31;;;;;;;4.83;1.93;;;8.10;71.90;;;9.21;56.75;96576.63;5070552;28;20045;-55
2024/01/04 08:26:04;;;;;;;5.97;2.80;;;8.00;71.70;;;9.34;56.80;96580.50;5070296;28;20040;-57
2024/01/04 08:28:32;;;;;;;3.17;1.63;;;8.10;71.20;;;9.44;56.43;96584.56;5070816;28;20045;-57
2024/01/04 08:30:59;;;;;;;7.40;2.20;;;8.20;71.50;;;9.49;56.78;96599.13;5073636;28;20049;-56
2024/01/04 08:33:32;;;;;;;3.60;1.80;;;8.20;71.30;;;9.40;55.93;96601.88;5074663;28;20141;-57
2024/01/04 08:36:00;;;;;;;11.90;2.90;;;8.10;69.90;;;9.32;55.63;96596.59;5074062;28;20055;-56
2024/01/04 08:38:30;;;;;;;5.13;2.43;;;8.10;69.90;;;9.31;56.18;96586.19;5074735;28;20041;-58
2024/01/04 08:40:59;;;;;;;4.87;2.00;;;8.10;70.20;;;9.41;56.14;96590.22;5072488;28;20059;-56
2024/01/04 08:43:27;;;;;;;3.67;1.10;;;8.10;70.30;;;9.40;56.06;96585.09;5073258;28;20423;-57
2024/01/04 08:45:54;;;;;;;5.67;1.47;;;8.20;70.70;;;9.43;55.77;96582.91;5073920;28;20049;-56
2024/01/04 08:48:22;;;;;;;4.37;1.40;;;8.20;70.10;;;9.46;55.77;96587.06;5074147;28;20043;-56
2024/01/04 08:50:50;;;;;;;4.13;1.37;;;8.20;69.90;;;9.32;55.59;96611.72;5072628;28;20052;-57
2024/01/04 08:53:20;;;;;;;8.00;2.97;;;8.10;69.40;;;9.32;55.82;96604.56;5073993;28;20063;-57
2024/01/04 08:55:49;;;;;;;8.03;2.73;;;8.20;69.30;;;9.41;55.55;96627.41;5074027;28;20079;-58
2024/01/04 08:58:17;;;;;;;4.03;1.77;;;8.20;69.30;;;9.16;55.27;96594.09;5074984;28;20059;-57
2024/01/04 09:00:44;;;;;;;3.53;1.33;;;8.20;69.50;;;9.25;55.72;96627.56;5073935;28;20037;-57
2024/01/04 09:03:12;;;;;;;6.60;1.30;;;8.20;69.50;;;9.30;55.65;96629.66;5073938;28;20044;-58
2024/01/04 09:05:40;;;;;;;3.10;1.20;;;8.20;68.90;;;9.33;55.49;96638.13;5071914;28;20415;-58
2024/01/04 09:08:09;;;;;;;3.17;1.37;;;8.30;69.00;;;9.45;55.33;96636.69;5073748;28;20044;-58
2024/01/04 09:10:37;;;;;;;8.37;1.90;;;8.30;69.20;;;9.46;55.10;96645.50;5054815;28;20053;-58
2024/01/04 09:13:04;;;;;;;2.73;1.00;;;8.30;69.10;;;9.38;54.81;96641.06;5072290;28;20089;-57
2024/01/04 09:15:32;;;;;;;2.77;1.17;;;8.30;67.70;;;9.43;54.85;96653.81;5073926;28;20044;-59
2024/01/04 09:17:59;;;;;;;5.73;1.47;;;8.40;67.80;;;9.56;54.13;96656.69;5073757;28;20047;-59
2024/01/04 09:20:28;;;;;;;7.83;1.63;;;8.40;66.80;;;9.44;54.36;96663.41;5073330;28;20037;-58
2024/01/04 09:22:55;;;;;;;2.63;1.13;;;8.50;66.70;;;9.49;54.30;96661.06;5073410;28;20111;-58
2024/01/04 09:25:23;;;;;;;3.00;1.07;;;8.50;66.40;;;9.46;54.09;96667.56;5071007;28;20208;-59
2024/01/04 09:27:55;;;;;;;6.57;1.20;;;8.50;66.40;;;9.54;53.55;96676.47;5070739;28;20044;-58
2024/01/04 09:30:23;;;;;;;3.87;1.37;;;8.60;65.70;;;9.60;53.95;96681.09;5072850;28;20045;-58
2024/01/04 09:32:51;;;;;;;6.27;1.13;;;8.60;66.10;;;9.70;53.87;96673.69;5073469;28;20059;-58
2024/01/04 09:35:22;;;;;;;2.07;1.20;;;8.70;66.20;;;9.62;53.96;96684.38;5069600;28;20051;-59
2024/01/04 09:37:50;;;;;;;6.07;1.17;;;8.60;66.50;;;9.56;52.99;96687.75;5063699;28;20424;-58
2024/01/04 09:40:21;;;;;;;6.33;1.97;;;8.60;64.70;;;9.56;53.65;96701.88;5070547;28;20044;-58
2024/01/04 09:42:52;;;;;;;2.43;0.83;;;8.60;65.90;;;9.57;53.31;96690.22;5071509;28;20500;-59
2024/01/04 09:45:21;;;;;;;2.87;1.37;;;8.70;65.50;;;9.61;53.78;96704.81;5070532;28;20158;-58
2024/01/04 09:47:50;;;;;;;4.40;1.23;;;8.70;65.70;;;9.60;53.55;96707.66;5073148;28;20040;-59
2024/01/04 09:50:19;;;;;;;3.73;1.33;;;8.70;66.10;;;9.69;53.84;96711.88;5072376;28;20040;-58
2024/01/04 09:52:55;;;;;;;3.70;1.27;;;8.80;66.00;;;9.69;54.07;96711.06;5068294;28;20051;-59
2024/01/04 09:55:26;;;;;;;4.30;1.40;;;8.70;66.30;;;9.77;53.64;96722.47;5070062;28;20496;-59
2024/01/04 09:57:53;;;;;;;2.57;1.00;;;8.70;66.60;;;9.72;53.89;96726.66;5064035;28;20052;-59
2024/01/04 10:00:21;;;;;;;3.73;1.53;;;8.60;66.90;;;9.69;53.96;96725.16;5070981;28;20048;-58
2024/01/04 10:02:50;;;;;;;4.27;1.40;;;8.60;67.20;;;9.74;53.70;96722.00;5071578;28;20044;-59
2024/01/04 10:05:18;;;;;;;3.50;1.57;;;8.50;67.20;;;9.74;54.08;96717.50;5070151;28;20044;-59
2024/01/04 10:08:19;;;;;;;4.87;1.50;;;8.60;67.50;;;9.61;54.08;96723.41;5071781;28;20040;-59
2024/01/04 10:10:46;;;;;;;4.13;1.90;;;8.50;67.30;;;9.70;53.79;96731.34;5070155;28;20051;-59
2024/01/04 10:13:16;;;;;;;3.07;1.90;;;8.40;67.10;;;9.59;53.65;96729.91;5070049;28;20484;-59
2024/01/04 10:15:47;;;;;;;2.87;1.73;;;8.40;67.30;;;9.61;54.02;96743.84;5070616;28;20041;-58
2024/01/04 10:18:17;;;;;;;3.63;1.77;;;8.40;67.80;;;9.61;54.10;96733.22;5071224;28;20033;-58
2024/01/04 10:21:03;;;;;;;5.03;1.30;;;8.40;67.80;;;9.52;53.79;96755.53;5071189;28;20377;-58
2024/01/04 10:23:31;;;;;;;2.50;1.57;;;8.40;67.40;;;9.44;53.93;96767.88;5070896;28;20423;-58
2024/01/04 10:26:27;;;;;;;2.60;1.40;;;8.30;67.60;;;9.53;54.18;96743.91;5071242;28;20041;-58
2024/01/04 10:28:59;;;;;;;3.17;1.50;;;8.40;67.70;;;9.49;54.21;96743.44;5069118;28;20055;-58
2024/01/04 10:31:27;;;;;;;2.27;1.63;;;8.30;68.40;;;9.56;54.30;96747.03;5070966;28;20511;-58
2024/01/04 10:34:00;;;;;;;3.97;1.53;;;8.40;68.20;;;9.44;54.61;96748.44;5070995;28;20048;-57
2024/01/04 10:36:28;;;;;;;2.07;1.07;;;8.30;69.10;;;9.43;54.95;96749.44;5071177;28;20048;-57